Aviation Digital Data Service (ADDS)

Output produced by METARs form (1756 UTC 15 December 2017)
found at http://www.aviationweather.gov/adds/metars/
 
KHKS 151753Z VRB03KT 10SM CLR 06/M02 A3027 RMK AO2 SLP248 T00611022 10061 20028 50011
KHKS 151653Z VRB04KT 10SM CLR 06/M01 A3029 RMK AO2 SLP254 T00611011
KHKS 151553Z 34005KT 10SM CLR 05/M01 A3029 RMK AO2 SLP252 T00501011
KHKS 151453Z VRB03KT 10SM CLR 04/00 A3024 RMK AO2 SLP236 T00390000 53025
KHKS 151353Z 34004KT 10SM CLR 03/M01 A3021 RMK AO2 SLP225 T00281006
KHKS 151253Z AUTO 33004KT 10SM CLR 03/M01 A3018 RMK AO2 SLP216 T00281006
KHKS 151153Z AUTO 32003KT 10SM CLR 03/M01 A3016 RMK AO2 SLP211 T00331006 10067 20028 53011
KHKS 151053Z AUTO 34004KT 10SM CLR 04/M01 A3014 RMK AO2 SLP200 T00391006
KHKS 150953Z AUTO VRB04KT 10SM CLR 04/M01 A3014 RMK AO2 SLP201 T00391006
KHKS 150853Z AUTO 01003KT 10SM CLR 04/M01 A3013 RMK AO2 SLP199 T00441006 53015
KHKS 150753Z AUTO VRB05KT 10SM CLR 06/00 A3012 RMK AO2 SLP194 T00560000
KHKS 150653Z AUTO 36004KT 10SM CLR 06/01 A3010 RMK AO2 SLP188 T00610006
KHKS 150553Z AUTO 01005KT 10SM CLR 07/01 A3009 RMK AO2 SLP183 T00670006 10094 20067 401390022 50009
KHKS 150453Z AUTO VRB04KT 10SM CLR 07/02 A3009 RMK AO2 SLP186 T00720017
KHKS 150353Z AUTO 35006KT 10SM CLR 08/02 A3007 RMK AO2 SLP178 T00830022
KHKS 150253Z 36004KT 10SM CLR 09/03 A3006 RMK AO2 SLP175 T00890028 51019
KHKS 150153Z 33003KT 10SM CLR 08/04 A3004 RMK AO2 SLP168 T00830044
KHKS 150053Z 00000KT 10SM CLR 09/04 A3003 RMK AO2 SLP164 T00940039
KHKS 142353Z 00000KT 10SM CLR 09/04 A3000 RMK AO2 SLP156 T00940039 10139 20094 53014
KHKS 142253Z 00000KT 10SM CLR 12/03 A2999 RMK AO2 SLP151 T01170033
KHKS 142153Z 00000KT 10SM CLR 13/03 A2997 RMK AO2 SLP145 T01280028
KHKS 142053Z 00000KT 10SM CLR 13/03 A2996 RMK AO2 SLP142 T01280028 56009
KHKS 141953Z VRB03KT 10SM CLR 13/03 A2997 RMK AO2 SLP143 T01330028
KHKS 141853Z 00000KT 10SM CLR 12/03 A2998 RMK AO2 SLP149 T01220028
KHKS 141753Z 28004KT 10SM CLR 11/03 A2999 RMK AO2 SLP151 T01110028 10111 20022 58002
KHKS 141653Z VRB03KT 10SM CLR 11/03 A3001 RMK AO2 SLP156 T01060028
KHKS 141553Z 28005KT 10SM CLR 09/03 A3002 RMK AO2 SLP161 T00940033
KHKS 141453Z 00000KT 10SM CLR 06/04 A3000 RMK AO2 SLP154 T00560039 53017
KHKS 141353Z 00000KT 10SM CLR 03/02 A2999 RMK AO2 SLP150 T00280017
KHKS 141253Z 00000KT 10SM CLR 03/01 A2995 RMK AO2 SLP139 T00280011
KHKS 141153Z AUTO 00000KT 10SM CLR 03/01 A2995 RMK AO2 SLP137 T00280006 10078 20028 53003
KHKS 141053Z AUTO 00000KT 10SM CLR 05/01 A2995 RMK AO2 SLP136 T00500011
KHKS 140953Z AUTO 00000KT 10SM CLR 05/01 A2994 RMK AO2 SLP132 T00500006
KHKS 140853Z AUTO 00000KT 10SM CLR 03/01 A2994 RMK AO2 SLP133 T00330006 56004
KHKS 140753Z AUTO 00000KT 10SM CLR 07/00 A2994 RMK AO2 SLP133 T00670000
KHKS 140653Z AUTO 22004KT 10SM CLR 07/00 A2994 RMK AO2 SLP135 T00720000
KHKS 140553Z AUTO 22003KT 10SM CLR 07/M01 A2995 RMK AO2 SLP137 T00721006 10111 20072 401611022 50004
KHKS 140453Z AUTO 24007KT 10SM CLR 08/M01 A2996 RMK AO2 SLP139 T00831011
KHKS 140353Z AUTO 22007KT 10SM CLR 08/M02 A2995 RMK AO2 SLP137 T00831017
KHKS 140253Z 23006KT 10SM CLR 09/M02 A2994 RMK AO2 SLP134 T00891022 51004
KHKS 140153Z 22010KT 10SM CLR 10/M02 A2993 RMK AO2 SLP133 T01001022
KHKS 140053Z 20008KT 10SM CLR 11/M02 A2994 RMK AO2 SLP134 T01061022
KHKS 132353Z 19007KT 10SM CLR 11/M03 A2993 RMK AO2 SLP131 T01111028 10161 20106 58018
KHKS 132253Z 20011KT 10SM CLR 13/M03 A2994 RMK AO2 SLP135 T01331033
KHKS 132153Z 22008KT 10SM CLR 15/M04 A2997 RMK AO2 SLP145 T01501039
KHKS 132053Z 19011G16KT 10SM CLR 16/M04 A2998 RMK AO2 SLP148 T01561044 56027
KHKS 131953Z 22011KT 10SM CLR 16/M04 A2999 RMK AO2 SLP149 T01561044
KHKS 131853Z 21012KT 10SM CLR 15/M05 A3002 RMK AO2 SLP161 T01501050
KHKS 131753Z 24011KT 10SM CLR 13/M06 A3006 RMK AO2 SLP175 T01331056 10139 21022 58021
KHKS 131653Z 20007G17KT 10SM CLR 11/M03 A3010 RMK AO2 SLP189 T01061028
KHKS 131553Z 18009KT 10SM CLR 08/M03 A3013 RMK AO2 SLP199 T00831033
KHKS 131453Z 17008KT 10SM CLR 05/M01 A3012 RMK AO2 SLP197 T00501011 58001
KHKS 131353Z 16004KT 10SM CLR 01/M01 A3013 RMK AO2 SLP198 T00061011
KHKS 131253Z 00000KT 10SM CLR M02/M03 A3013 RMK AO2 SLP198 T10221028
KHKS 131153Z AUTO 00000KT 10SM CLR M02/M03 A3013 RMK AO2 SLP199 T10221028 10017 21022 55008
KHKS 131053Z AUTO 00000KT 10SM CLR M02/M02 A3012 RMK AO2 SLP196 T10171022
KHKS 130953Z AUTO 00000KT 10SM CLR M02/M02 A3014 RMK AO2 SLP202 T10171022
KHKS 130853Z AUTO 00000KT 10SM CLR M01/M02 A3015 RMK AO2 SLP207 T10061022 55005
KHKS 130753Z AUTO 00000KT 10SM CLR 00/M02 A3015 RMK AO2 SLP206 T00001022
KHKS 130653Z AUTO 00000KT 10SM CLR 01/M02 A3015 RMK AO2 SLP206 T00061022
KHKS 130553Z AUTO 00000KT 10SM CLR 02/M02 A3017 RMK AO2 SLP212 T00171022 10089 20017 401330017 58004
KHKS 130453Z AUTO 00000KT 10SM CLR 02/M03 A3018 RMK AO2 SLP216 T00221028
KHKS 130353Z AUTO 00000KT 10SM CLR 06/M03 A3019 RMK AO2 SLP217 T00561033
KHKS 130253Z AUTO 01004KT 10SM CLR 06/M03 A3018 RMK AO2 SLP216 T00611033 51006
KHKS 130153Z 34004KT 10SM CLR 07/M02 A3018 RMK AO2 SLP215 T00671022
KHKS 130053Z 34004KT 10SM CLR 08/M01 A3017 RMK AO2 SLP213 T00781011
KHKS 122353Z 33004KT 10SM CLR 08/M01 A3016 RMK AO2 SLP210 T00831006 10133 20083 51006
KHKS 122253Z 31006KT 10SM CLR 10/M01 A3016 RMK AO2 SLP208 T01001011
KHKS 122153Z 32012KT 10SM CLR 12/M03 A3016 RMK AO2 SLP206 T01221028
KHKS 122053Z 31010G18KT 10SM CLR 13/M02 A3015 RMK AO2 SLP204 T01281017 55014
KHKS 121953Z 33008G18KT 300V360 10SM CLR 13/00 A3013 RMK AO2 SLP198 T01330000
KHKS 121853Z 33008KT 310V020 10SM CLR 13/01 A3017 RMK AO2 SLP209 T01330011